sensor_id;sensor_type;location;lat;lon;timestamp;pressure;altitude;pressure_sealevel;temperature;humidity
11523;BME280;40093;43.224;27.910;2022-11-15T00:02:07;101314.44;;;10.98;100.00
11523;BME280;40093;43.224;27.910;2022-11-15T00:04:34;101327.84;;;10.99;100.00
11523;BME280;40093;43.224;27.910;2022-11-15T00:07:01;101320.50;;;10.88;100.00
11523;BME280;40093;43.224;27.910;2022-11-15T00:09:29;101313.47;;;10.90;100.00
11523;BME280;40093;43.224;27.910;2022-11-15T00:11:56;101315.16;;;10.95;100.00
11523;BME280;40093;43.224;27.910;2022-11-15T00:14:23;101317.47;;;10.93;100.00
11523;BME280;40093;43.224;27.910;2022-11-15T00:16:50;101315.22;;;10.98;100.00
11523;BME280;40093;43.224;27.910;2022-11-15T00:19:17;101307.41;;;11.00;100.00
11523;BME280;40093;43.224;27.910;2022-11-15T00:21:44;101305.91;;;11.03;100.00
11523;BME280;40093;43.224;27.910;2022-11-15T00:24:11;101314.88;;;11.00;100.00
11523;BME280;40093;43.224;27.910;2022-11-15T00:26:39;101313.13;;;10.92;100.00
11523;BME280;40093;43.224;27.910;2022-11-15T00:29:06;101312.03;;;10.96;100.00
11523;BME280;40093;43.224;27.910;2022-11-15T00:31:33;101304.78;;;10.88;100.00
11523;BME280;40093;43.224;27.910;2022-11-15T00:34:00;101305.84;;;10.84;100.00
11523;BME280;40093;43.224;27.910;2022-11-15T00:36:27;101305.50;;;10.85;100.00
11523;BME280;40093;43.224;27.910;2022-11-15T00:38:54;101305.19;;;10.90;100.00
11523;BME280;40093;43.224;27.910;2022-11-15T00:41:21;101297.22;;;10.85;100.00
11523;BME280;40093;43.224;27.910;2022-11-15T00:43:49;101292.34;;;10.94;100.00
11523;BME280;40093;43.224;27.910;2022-11-15T00:46:19;101290.88;;;11.00;100.00
11523;BME280;40093;43.224;27.910;2022-11-15T00:48:46;101292.47;;;11.01;100.00
11523;BME280;40093;43.224;27.910;2022-11-15T00:51:13;101294.22;;;11.09;100.00
11523;BME280;40093;43.224;27.910;2022-11-15T00:53:40;101292.56;;;11.05;100.00
11523;BME280;40093;43.224;27.910;2022-11-15T00:56:07;101292.47;;;11.01;100.00
11523;BME280;40093;43.224;27.910;2022-11-15T00:58:34;101294.66;;;11.11;100.00
11523;BME280;40093;43.224;27.910;2022-11-15T01:01:13;101290.19;;;11.03;100.00
11523;BME280;40093;43.224;27.910;2022-11-15T01:03:41;101283.00;;;10.99;100.00
11523;BME280;40093;43.224;27.910;2022-11-15T01:06:10;101290.41;;;10.79;100.00
11523;BME280;40093;43.224;27.910;2022-11-15T01:08:39;101275.38;;;10.92;100.00
11523;BME280;40093;43.224;27.910;2022-11-15T01:11:08;101275.72;;;10.91;100.00
11523;BME280;40093;43.224;27.910;2022-11-15T01:13:36;101282.91;;;10.95;100.00
11523;BME280;40093;43.224;27.910;2022-11-15T01:16:08;101283.09;;;11.02;100.00
11523;BME280;40093;43.224;27.910;2022-11-15T01:18:37;101280.91;;;11.11;100.00
11523;BME280;40093;43.224;27.910;2022-11-15T01:21:06;101285.31;;;11.16;100.00
11523;BME280;40093;43.224;27.910;2022-11-15T01:23:33;101277.44;;;11.14;100.00
11523;BME280;40093;43.224;27.910;2022-11-15T01:26:00;101285.69;;;11.14;100.00
11523;BME280;40093;43.224;27.910;2022-11-15T01:28:30;101278.72;;;11.20;100.00
11523;BME280;40093;43.224;27.910;2022-11-15T01:30:58;101281.50;;;11.20;100.00
11523;BME280;40093;43.224;27.910;2022-11-15T01:33:25;101281.06;;;11.18;100.00
11523;BME280;40093;43.224;27.910;2022-11-15T01:35:53;101274.44;;;11.04;100.00
11523;BME280;40093;43.224;27.910;2022-11-15T01:38:20;101279.16;;;11.03;100.00
11523;BME280;40093;43.224;27.910;2022-11-15T01:40:48;101280.59;;;10.97;100.00
11523;BME280;40093;43.224;27.910;2022-11-15T01:43:23;101278.81;;;10.89;100.00
11523;BME280;40093;43.224;27.910;2022-11-15T01:45:52;101278.81;;;10.89;100.00
11523;BME280;40093;43.224;27.910;2022-11-15T01:48:23;101281.06;;;10.84;100.00
11523;BME280;40093;43.224;27.910;2022-11-15T01:50:54;101275.56;;;10.84;100.00
11523;BME280;40093;43.224;27.910;2022-11-15T01:53:21;101273.09;;;10.79;100.00
11523;BME280;40093;43.224;27.910;2022-11-15T01:55:50;101271.59;;;10.81;100.00
11523;BME280;40093;43.224;27.910;2022-11-15T01:58:17;101267.81;;;10.89;100.00
11523;BME280;40093;43.224;27.910;2022-11-15T02:00:44;101262.59;;;10.84;100.00
11523;BME280;40093;43.224;27.910;2022-11-15T02:03:11;101262.00;;;10.75;100.00
11523;BME280;40093;43.224;27.910;2022-11-15T02:05:38;101264.53;;;10.84;100.00
11523;BME280;40093;43.224;27.910;2022-11-15T02:08:06;101237.31;;;10.79;100.00
11523;BME280;40093;43.224;27.910;2022-11-15T02:10:33;101257.06;;;11.00;100.00
11523;BME280;40093;43.224;27.910;2022-11-15T02:13:01;101259.88;;;11.03;100.00
11523;BME280;40093;43.224;27.910;2022-11-15T02:15:35;101256.16;;;10.96;100.00
11523;BME280;40093;43.224;27.910;2022-11-15T02:18:15;101252.31;;;11.00;100.00
11523;BME280;40093;43.224;27.910;2022-11-15T02:20:58;101253.78;;;10.94;100.00
11523;BME280;40093;43.224;27.910;2022-11-15T02:24:02;101255.88;;;11.01;100.00
11523;BME280;40093;43.224;27.910;2022-11-15T02:26:58;101257.81;;;10.81;100.00
11523;BME280;40093;43.224;27.910;2022-11-15T02:29:41;101247.66;;;10.85;100.00
11523;BME280;40093;43.224;27.910;2022-11-15T02:32:19;101253.22;;;10.70;100.00
11523;BME280;40093;43.224;27.910;2022-11-15T02:34:54;101250.16;;;10.75;100.00
11523;BME280;40093;43.224;27.910;2022-11-15T02:37:33;101246.66;;;10.59;100.00
11523;BME280;40093;43.224;27.910;2022-11-15T02:40:07;101240.97;;;10.52;100.00
11523;BME280;40093;43.224;27.910;2022-11-15T02:42:42;101245.84;;;10.58;100.00
11523;BME280;40093;43.224;27.910;2022-11-15T02:45:36;101247.13;;;10.45;100.00
11523;BME280;40093;43.224;27.910;2022-11-15T02:48:07;101241.47;;;10.38;100.00
11523;BME280;40093;43.224;27.910;2022-11-15T02:50:36;101240.41;;;10.27;100.00
11523;BME280;40093;43.224;27.910;2022-11-15T02:53:03;101239.41;;;10.35;100.00
11523;BME280;40093;43.224;27.910;2022-11-15T02:55:32;101234.78;;;10.55;100.00
11523;BME280;40093;43.224;27.910;2022-11-15T02:58:15;101231.56;;;10.53;100.00
11523;BME280;40093;43.224;27.910;2022-11-15T03:00:49;101226.06;;;10.53;100.00
11523;BME280;40093;43.224;27.910;2022-11-15T03:03:37;101226.97;;;10.57;100.00
11523;BME280;40093;43.224;27.910;2022-11-15T03:06:12;101227.69;;;10.54;100.00
11523;BME280;40093;43.224;27.910;2022-11-15T03:08:50;101210.03;;;9.93;100.00
11523;BME280;40093;43.224;27.910;2022-11-15T03:11:21;101227.06;;;9.98;100.00
11523;BME280;40093;43.224;27.910;2022-11-15T03:13:54;101217.56;;;9.80;100.00
11523;BME280;40093;43.224;27.910;2022-11-15T03:16:27;101225.38;;;9.94;100.00
11523;BME280;40093;43.224;27.910;2022-11-15T03:19:02;101215.53;;;9.77;100.00
11523;BME280;40093;43.224;27.910;2022-11-15T03:21:31;101221.00;;;9.77;100.00
11523;BME280;40093;43.224;27.910;2022-11-15T03:24:02;101219.25;;;10.00;100.00
11523;BME280;40093;43.224;27.910;2022-11-15T03:26:31;101209.69;;;10.10;100.00
11523;BME280;40093;43.224;27.910;2022-11-15T03:29:04;101212.00;;;10.23;100.00
11523;BME280;40093;43.224;27.910;2022-11-15T03:31:35;101204.56;;;10.24;100.00
11523;BME280;40093;43.224;27.910;2022-11-15T03:34:20;101208.81;;;10.21;100.00
11523;BME280;40093;43.224;27.910;2022-11-15T03:36:49;101201.00;;;10.23;100.00
11523;BME280;40093;43.224;27.910;2022-11-15T03:39:18;101206.50;;;10.23;100.00
11523;BME280;40093;43.224;27.910;2022-11-15T03:41:49;101199.50;;;10.26;100.00
11523;BME280;40093;43.224;27.910;2022-11-15T03:44:23;101192.94;;;10.15;100.00
11523;BME280;40093;43.224;27.910;2022-11-15T03:46:56;101192.22;;;10.02;100.00
11523;BME280;40093;43.224;27.910;2022-11-15T03:49:29;101197.63;;;10.14;100.00
11523;BME280;40093;43.224;27.910;2022-11-15T03:51:58;101184.41;;;10.20;100.00
11523;BME280;40093;43.224;27.910;2022-11-15T03:54:25;101185.41;;;10.27;100.00
11523;BME280;40093;43.224;27.910;2022-11-15T03:56:52;101187.94;;;10.36;100.00
11523;BME280;40093;43.224;27.910;2022-11-15T03:59:19;101179.25;;;10.34;100.00
11523;BME280;40093;43.224;27.910;2022-11-15T04:01:46;101184.25;;;10.47;100.00
11523;BME280;40093;43.224;27.910;2022-11-15T04:04:13;101183.72;;;10.57;100.00
11523;BME280;40093;43.224;27.910;2022-11-15T04:06:42;101182.84;;;10.53;100.00
11523;BME280;40093;43.224;27.910;2022-11-15T04:09:10;101173.81;;;10.37;100.00
11523;BME280;40093;43.224;27.910;2022-11-15T04:11:37;101183.41;;;10.43;100.00
11523;BME280;40093;43.224;27.910;2022-11-15T04:14:04;101184.53;;;10.58;100.00
11523;BME280;40093;43.224;27.910;2022-11-15T04:16:31;101182.19;;;10.60;100.00
11523;BME280;40093;43.224;27.910;2022-11-15T04:19:00;101178.47;;;10.68;100.00
11523;BME280;40093;43.224;27.910;2022-11-15T04:21:52;101184.22;;;10.63;100.00
11523;BME280;40093;43.224;27.910;2022-11-15T04:24:39;101182.72;;;10.65;100.00
11523;BME280;40093;43.224;27.910;2022-11-15T04:27:06;101185.91;;;10.67;100.00
11523;BME280;40093;43.224;27.910;2022-11-15T04:29:33;101187.78;;;10.63;100.00
11523;BME280;40093;43.224;27.910;2022-11-15T04:32:02;101183.97;;;10.68;100.00
11523;BME280;40093;43.224;27.910;2022-11-15T04:34:29;101182.81;;;10.69;100.00
11523;BME280;40093;43.224;27.910;2022-11-15T04:36:58;101185.72;;;10.76;100.00
11523;BME280;40093;43.224;27.910;2022-11-15T04:39:42;101177.38;;;10.72;100.00
11523;BME280;40093;43.224;27.910;2022-11-15T04:42:10;101173.44;;;10.54;100.00
11523;BME280;40093;43.224;27.910;2022-11-15T04:44:37;101178.84;;;10.51;100.00
11523;BME280;40093;43.224;27.910;2022-11-15T04:47:04;101175.44;;;10.38;100.00
11523;BME280;40093;43.224;27.910;2022-11-15T04:49:31;101172.69;;;10.38;100.00
11523;BME280;40093;43.224;27.910;2022-11-15T04:51:59;101173.66;;;10.30;100.00
11523;BME280;40093;43.224;27.910;2022-11-15T04:54:27;101176.56;;;10.37;100.00
11523;BME280;40093;43.224;27.910;2022-11-15T04:56:55;101176.47;;;10.49;100.00
11523;BME280;40093;43.224;27.910;2022-11-15T04:59:22;101178.19;;;10.38;100.00
11523;BME280;40093;43.224;27.910;2022-11-15T05:01:48;101171.34;;;10.32;100.00
11523;BME280;40093;43.224;27.910;2022-11-15T05:04:15;101169.75;;;10.31;100.00
11523;BME280;40093;43.224;27.910;2022-11-15T05:06:52;101178.72;;;10.44;100.00
11523;BME280;40093;43.224;27.910;2022-11-15T05:09:24;101171.31;;;10.48;100.00
11523;BME280;40093;43.224;27.910;2022-11-15T05:11:50;101166.56;;;10.29;100.00
11523;BME280;40093;43.224;27.910;2022-11-15T05:14:17;101174.53;;;10.34;100.00
11523;BME280;40093;43.224;27.910;2022-11-15T05:16:45;101176.56;;;10.37;100.00
11523;BME280;40093;43.224;27.910;2022-11-15T05:19:12;101168.16;;;10.30;100.00
11523;BME280;40093;43.224;27.910;2022-11-15T05:21:39;101174.16;;;10.51;100.00
11523;BME280;40093;43.224;27.910;2022-11-15T05:24:06;101173.09;;;10.56;100.00
11523;BME280;40093;43.224;27.910;2022-11-15T05:26:34;101176.78;;;10.63;100.00
11523;BME280;40093;43.224;27.910;2022-11-15T05:29:01;101181.56;;;10.66;100.00
11523;BME280;40093;43.224;27.910;2022-11-15T05:31:28;101184.91;;;10.75;100.00
11523;BME280;40093;43.224;27.910;2022-11-15T05:33:56;101187.22;;;10.73;100.00
11523;BME280;40093;43.224;27.910;2022-11-15T05:36:28;101183.06;;;10.64;100.00
11523;BME280;40093;43.224;27.910;2022-11-15T05:38:56;101178.94;;;10.54;100.00
11523;BME280;40093;43.224;27.910;2022-11-15T05:41:26;101179.53;;;10.63;100.00
11523;BME280;40093;43.224;27.910;2022-11-15T05:43:57;101180.41;;;10.67;100.00
11523;BME280;40093;43.224;27.910;2022-11-15T05:46:25;101179.69;;;10.70;100.00
11523;BME280;40093;43.224;27.910;2022-11-15T05:48:53;101179.03;;;10.58;100.00
11523;BME280;40093;43.224;27.910;2022-11-15T05:51:21;101175.75;;;10.52;100.00
11523;BME280;40093;43.224;27.910;2022-11-15T05:53:49;101175.31;;;10.50;100.00
11523;BME280;40093;43.224;27.910;2022-11-15T05:56:18;101183.44;;;10.62;100.00
11523;BME280;40093;43.224;27.910;2022-11-15T05:58:46;101185.31;;;10.58;100.00
11523;BME280;40093;43.224;27.910;2022-11-15T06:01:14;101188.38;;;10.72;100.00
11523;BME280;40093;43.224;27.910;2022-11-15T06:03:41;101189.97;;;10.73;100.00
11523;BME280;40093;43.224;27.910;2022-11-15T06:06:08;101189.03;;;10.85;100.00
11523;BME280;40093;43.224;27.910;2022-11-15T06:08:35;101188.25;;;10.84;100.00
11523;BME280;40093;43.224;27.910;2022-11-15T06:11:05;101185.06;;;10.82;100.00
11523;BME280;40093;43.224;27.910;2022-11-15T06:13:32;101186.19;;;10.97;100.00
11523;BME280;40093;43.224;27.910;2022-11-15T06:15:59;101196.16;;;11.05;100.00
11523;BME280;40093;43.224;27.910;2022-11-15T06:18:27;101182.81;;;11.07;100.00
11523;BME280;40093;43.224;27.910;2022-11-15T06:20:58;101186.47;;;11.11;100.00
11523;BME280;40093;43.224;27.910;2022-11-15T06:23:25;101187.31;;;10.96;100.00
11523;BME280;40093;43.224;27.910;2022-11-15T06:25:52;101190.13;;;10.80;100.00
11523;BME280;40093;43.224;27.910;2022-11-15T06:28:19;101183.91;;;10.83;100.00
11523;BME280;40093;43.224;27.910;2022-11-15T06:30:46;101194.66;;;11.07;100.00
11523;BME280;40093;43.224;27.910;2022-11-15T06:33:13;101191.03;;;11.03;100.00
11523;BME280;40093;43.224;27.910;2022-11-15T06:35:41;101181.66;;;10.89;100.00
11523;BME280;40093;43.224;27.910;2022-11-15T06:38:10;101196.66;;;11.10;100.00
11523;BME280;40093;43.224;27.910;2022-11-15T06:40:38;101185.13;;;11.24;100.00
11523;BME280;40093;43.224;27.910;2022-11-15T06:43:06;101186.97;;;11.35;100.00
11523;BME280;40093;43.224;27.910;2022-11-15T06:45:33;101185.94;;;11.24;100.00
11523;BME280;40093;43.224;27.910;2022-11-15T06:48:00;101184.47;;;11.30;100.00
11523;BME280;40093;43.224;27.910;2022-11-15T06:50:27;101182.81;;;11.45;100.00
11523;BME280;40093;43.224;27.910;2022-11-15T06:52:55;101179.22;;;11.44;100.00
11523;BME280;40093;43.224;27.910;2022-11-15T06:55:26;101184.59;;;11.56;100.00
11523;BME280;40093;43.224;27.910;2022-11-15T06:57:53;101179.81;;;11.53;100.00
11523;BME280;40093;43.224;27.910;2022-11-15T07:00:21;101177.56;;;11.59;100.00
11523;BME280;40093;43.224;27.910;2022-11-15T07:02:48;101182.97;;;11.74;100.00
11523;BME280;40093;43.224;27.910;2022-11-15T07:05:15;101191.81;;;11.83;100.00
11523;BME280;40093;43.224;27.910;2022-11-15T07:07:42;101187.28;;;11.94;100.00
11523;BME280;40093;43.224;27.910;2022-11-15T07:10:11;101187.41;;;12.01;100.00
11523;BME280;40093;43.224;27.910;2022-11-15T07:12:38;101189.84;;;12.06;100.00
11523;BME280;40093;43.224;27.910;2022-11-15T07:15:06;101192.25;;;12.08;100.00
11523;BME280;40093;43.224;27.910;2022-11-15T07:17:32;101184.94;;;11.96;100.00
11523;BME280;40093;43.224;27.910;2022-11-15T07:19:59;101184.44;;;11.91;100.00
11523;BME280;40093;43.224;27.910;2022-11-15T07:22:26;101178.44;;;11.85;100.00
11523;BME280;40093;43.224;27.910;2022-11-15T07:24:53;101173.66;;;11.82;100.00
11523;BME280;40093;43.224;27.910;2022-11-15T07:27:21;101175.25;;;11.83;100.00
11523;BME280;40093;43.224;27.910;2022-11-15T07:29:48;101167.72;;;11.80;100.00
11523;BME280;40093;43.224;27.910;2022-11-15T07:32:15;101167.59;;;11.73;100.00
11523;BME280;40093;43.224;27.910;2022-11-15T07:34:42;101172.56;;;11.64;100.00
11523;BME280;40093;43.224;27.910;2022-11-15T07:37:10;101176.19;;;11.49;100.00
11523;BME280;40093;43.224;27.910;2022-11-15T07:39:37;101175.84;;;11.32;100.00
11523;BME280;40093;43.224;27.910;2022-11-15T07:42:05;101173.34;;;11.23;100.00
11523;BME280;40093;43.224;27.910;2022-11-15T07:44:50;101176.63;;;11.32;100.00
11523;BME280;40093;43.224;27.910;2022-11-15T07:47:17;101171.28;;;11.20;100.00
11523;BME280;40093;43.224;27.910;2022-11-15T07:49:44;101171.44;;;11.27;100.00
11523;BME280;40093;43.224;27.910;2022-11-15T07:52:11;101149.31;;;11.24;100.00
11523;BME280;40093;43.224;27.910;2022-11-15T07:54:38;101164.75;;;11.47;100.00
11523;BME280;40093;43.224;27.910;2022-11-15T07:57:05;101155.34;;;11.29;100.00
11523;BME280;40093;43.224;27.910;2022-11-15T07:59:34;101163.38;;;11.38;100.00
11523;BME280;40093;43.224;27.910;2022-11-15T08:02:02;101169.09;;;11.48;100.00
11523;BME280;40093;43.224;27.910;2022-11-15T08:04:29;101176.41;;;11.60;100.00
11523;BME280;40093;43.224;27.910;2022-11-15T08:06:56;101172.56;;;11.64;100.00
11523;BME280;40093;43.224;27.910;2022-11-15T08:09:24;101171.53;;;11.72;100.00
11523;BME280;40093;43.224;27.910;2022-11-15T08:11:50;101173.28;;;11.61;100.00
11523;BME280;40093;43.224;27.910;2022-11-15T08:14:18;101171.50;;;11.50;100.00
11523;BME280;40093;43.224;27.910;2022-11-15T08:16:47;101167.94;;;11.30;100.00
11523;BME280;40093;43.224;27.910;2022-11-15T08:19:15;101172.59;;;11.26;100.00
11523;BME280;40093;43.224;27.910;2022-11-15T08:21:42;101169.03;;;11.26;100.00
11523;BME280;40093;43.224;27.910;2022-11-15T08:24:09;101172.13;;;11.43;100.00
11523;BME280;40093;43.224;27.910;2022-11-15T08:26:37;101169.75;;;11.42;100.00
11523;BME280;40093;43.224;27.910;2022-11-15T08:29:05;101162.91;;;11.55;100.00
11523;BME280;40093;43.224;27.910;2022-11-15T08:31:32;101160.31;;;11.62;100.00
11523;BME280;40093;43.224;27.910;2022-11-15T08:34:00;101163.84;;;11.62;100.00
11523;BME280;40093;43.224;27.910;2022-11-15T08:36:29;101152.16;;;11.69;100.00
11523;BME280;40093;43.224;27.910;2022-11-15T08:38:55;101156.75;;;11.61;100.00
11523;BME280;40093;43.224;27.910;2022-11-15T08:41:25;101158.16;;;11.74;100.00
11523;BME280;40093;43.224;27.910;2022-11-15T08:43:53;101155.97;;;11.83;100.00
11523;BME280;40093;43.224;27.910;2022-11-15T08:46:20;101149.97;;;11.78;100.00
11523;BME280;40093;43.224;27.910;2022-11-15T08:48:47;101150.44;;;11.83;100.00
11523;BME280;40093;43.224;27.910;2022-11-15T08:51:14;101149.47;;;11.95;100.00
11523;BME280;40093;43.224;27.910;2022-11-15T08:53:43;101136.16;;;12.00;100.00
11523;BME280;40093;43.224;27.910;2022-11-15T08:56:11;101142.63;;;12.11;100.00
11523;BME280;40093;43.224;27.910;2022-11-15T08:58:38;101143.47;;;12.15;100.00
11523;BME280;40093;43.224;27.910;2022-11-15T09:01:05;101132.91;;;11.95;100.00
11523;BME280;40093;43.224;27.910;2022-11-15T09:03:32;101129.06;;;11.99;100.00
11523;BME280;40093;43.224;27.910;2022-11-15T09:06:00;101123.06;;;11.94;100.00
11523;BME280;40093;43.224;27.910;2022-11-15T09:08:30;101122.38;;;12.00;100.00
11523;BME280;40093;43.224;27.910;2022-11-15T09:10:58;101122.72;;;11.99;100.00
11523;BME280;40093;43.224;27.910;2022-11-15T09:13:25;101129.06;;;11.99;100.00
11523;BME280;40093;43.224;27.910;2022-11-15T09:15:52;101109.69;;;11.96;100.00
11523;BME280;40093;43.224;27.910;2022-11-15T09:18:18;101114.72;;;11.90;100.00
11523;BME280;40093;43.224;27.910;2022-11-15T09:20:47;101111.34;;;12.00;100.00
11523;BME280;40093;43.224;27.910;2022-11-15T09:23:14;101106.84;;;12.15;100.00
11523;BME280;40093;43.224;27.910;2022-11-15T09:25:41;101107.31;;;12.20;100.00
11523;BME280;40093;43.224;27.910;2022-11-15T09:28:09;101101.31;;;12.15;100.00
11523;BME280;40093;43.224;27.910;2022-11-15T09:30:36;101106.97;;;12.25;100.00
11523;BME280;40093;43.224;27.910;2022-11-15T09:33:06;101101.63;;;12.36;100.00
11523;BME280;40093;43.224;27.910;2022-11-15T09:35:34;101097.28;;;12.38;100.00
11523;BME280;40093;43.224;27.910;2022-11-15T09:38:01;101087.94;;;12.46;100.00
11523;BME280;40093;43.224;27.910;2022-11-15T09:40:30;101090.19;;;12.37;100.00
11523;BME280;40093;43.224;27.910;2022-11-15T09:43:07;101091.59;;;12.53;100.00
11523;BME280;40093;43.224;27.910;2022-11-15T09:45:42;101094.66;;;12.45;100.00
11523;BME280;40093;43.224;27.910;2022-11-15T09:48:29;101091.53;;;12.50;100.00
11523;BME280;40093;43.224;27.910;2022-11-15T09:51:02;101083.06;;;12.36;100.00
11523;BME280;40093;43.224;27.910;2022-11-15T09:53:34;101085.19;;;12.46;100.00
11523;BME280;40093;43.224;27.910;2022-11-15T09:56:14;101082.78;;;12.41;100.00
11523;BME280;40093;43.224;27.910;2022-11-15T09:58:46;101081.00;;;12.59;100.00
11523;BME280;40093;43.224;27.910;2022-11-15T10:01:29;101074.88;;;12.72;100.00
11523;BME280;40093;43.224;27.910;2022-11-15T10:04:00;101068.47;;;12.65;100.00
11523;BME280;40093;43.224;27.910;2022-11-15T10:06:27;101062.00;;;12.83;100.00
11523;BME280;40093;43.224;27.910;2022-11-15T10:09:01;101057.19;;;13.10;100.00
11523;BME280;40093;43.224;27.910;2022-11-15T10:11:32;101066.56;;;13.02;100.00
11523;BME280;40093;43.224;27.910;2022-11-15T10:14:04;101060.44;;;13.19;100.00
11523;BME280;40093;43.224;27.910;2022-11-15T10:17:11;101059.63;;;13.18;100.00
11523;BME280;40093;43.224;27.910;2022-11-15T10:19:50;101054.56;;;13.24;100.00
11523;BME280;40093;43.224;27.910;2022-11-15T10:22:27;101044.22;;;13.17;100.00
11523;BME280;40093;43.224;27.910;2022-11-15T10:25:10;101042.09;;;13.04;100.00
11523;BME280;40093;43.224;27.910;2022-11-15T10:27:38;101039.94;;;12.87;100.00
11523;BME280;40093;43.224;27.910;2022-11-15T10:30:11;101029.06;;;13.01;100.00
11523;BME280;40093;43.224;27.910;2022-11-15T10:32:40;101022.53;;;13.19;100.00
11523;BME280;40093;43.224;27.910;2022-11-15T10:35:21;101026.47;;;13.15;100.00
11523;BME280;40093;43.224;27.910;2022-11-15T10:37:50;101027.34;;;13.29;100.00
11523;BME280;40093;43.224;27.910;2022-11-15T10:40:20;101019.06;;;13.26;100.00
11523;BME280;40093;43.224;27.910;2022-11-15T10:42:49;101014.66;;;13.21;100.00
11523;BME280;40093;43.224;27.910;2022-11-15T10:45:32;101017.13;;;13.30;100.00
11523;BME280;40093;43.224;27.910;2022-11-15T10:48:23;101007.22;;;13.29;100.00
11523;BME280;40093;43.224;27.910;2022-11-15T10:50:51;101006.13;;;13.40;100.00
11523;BME280;40093;43.224;27.910;2022-11-15T10:53:31;101013.31;;;13.48;100.00
11523;BME280;40093;43.224;27.910;2022-11-15T10:56:02;101003.53;;;13.61;100.00
11523;BME280;40093;43.224;27.910;2022-11-15T10:58:33;101000.44;;;13.70;100.00
11523;BME280;40093;43.224;27.910;2022-11-15T11:01:12;100997.97;;;13.54;100.00
11523;BME280;40093;43.224;27.910;2022-11-15T11:03:42;100989.97;;;13.46;100.00
11523;BME280;40093;43.224;27.910;2022-11-15T11:06:11;100992.00;;;13.49;100.00
11523;BME280;40093;43.224;27.910;2022-11-15T11:08:39;100981.50;;;13.72;100.00
11523;BME280;40093;43.224;27.910;2022-11-15T11:11:06;100974.66;;;13.55;100.00
11523;BME280;40093;43.224;27.910;2022-11-15T11:13:35;100969.97;;;13.63;100.00
11523;BME280;40093;43.224;27.910;2022-11-15T11:16:28;100975.47;;;13.59;100.00
11523;BME280;40093;43.224;27.910;2022-11-15T11:19:07;100968.38;;;13.62;100.00
11523;BME280;40093;43.224;27.910;2022-11-15T11:21:43;100958.91;;;13.63;100.00
11523;BME280;40093;43.224;27.910;2022-11-15T11:24:18;100966.09;;;13.78;100.00
11523;BME280;40093;43.224;27.910;2022-11-15T11:27:21;100956.53;;;13.61;100.00
11523;BME280;40093;43.224;27.910;2022-11-15T11:30:07;100955.03;;;13.74;100.00
11523;BME280;40093;43.224;27.910;2022-11-15T11:33:00;100947.97;;;13.84;100.00
11523;BME280;40093;43.224;27.910;2022-11-15T11:35:33;100938.16;;;13.90;100.00
11523;BME280;40093;43.224;27.910;2022-11-15T11:38:17;100937.38;;;14.00;100.00
11523;BME280;40093;43.224;27.910;2022-11-15T11:41:04;100938.63;;;14.09;100.00
11523;BME280;40093;43.224;27.910;2022-11-15T11:43:47;100931.09;;;14.10;100.00
11523;BME280;40093;43.224;27.910;2022-11-15T11:46:34;100933.13;;;14.16;100.00
11523;BME280;40093;43.224;27.910;2022-11-15T11:49:08;100928.28;;;13.96;100.00
11523;BME280;40093;43.224;27.910;2022-11-15T11:51:39;100923.47;;;13.86;100.00
11523;BME280;40093;43.224;27.910;2022-11-15T11:54:13;100929.41;;;13.88;100.00
11523;BME280;40093;43.224;27.910;2022-11-15T11:56:43;100921.16;;;13.95;100.00
11523;BME280;40093;43.224;27.910;2022-11-15T11:59:17;100919.63;;;14.01;100.00
11523;BME280;40093;43.224;27.910;2022-11-15T12:01:47;100911.72;;;14.06;100.00
11523;BME280;40093;43.224;27.910;2022-11-15T12:04:17;100906.25;;;14.17;100.00
11523;BME280;40093;43.224;27.910;2022-11-15T12:06:49;100910.94;;;14.06;100.00
11523;BME280;40093;43.224;27.910;2022-11-15T12:09:21;100906.28;;;14.20;100.00
11523;BME280;40093;43.224;27.910;2022-11-15T12:11:54;100903.53;;;14.31;100.00
11523;BME280;40093;43.224;27.910;2022-11-15T12:14:31;100901.97;;;14.37;100.00
11523;BME280;40093;43.224;27.910;2022-11-15T12:17:00;100907.13;;;14.42;100.00
11523;BME280;40093;43.224;27.910;2022-11-15T12:19:28;100885.72;;;14.32;100.00
11523;BME280;40093;43.224;27.910;2022-11-15T12:22:00;100896.03;;;14.35;100.00
11523;BME280;40093;43.224;27.910;2022-11-15T12:24:33;100881.81;;;14.40;100.00
11523;BME280;40093;43.224;27.910;2022-11-15T12:27:05;100893.66;;;14.37;100.00
11523;BME280;40093;43.224;27.910;2022-11-15T12:29:37;100892.88;;;14.33;100.00
11523;BME280;40093;43.224;27.910;2022-11-15T12:32:17;100881.03;;;14.46;100.00
11523;BME280;40093;43.224;27.910;2022-11-15T12:34:46;100872.34;;;14.48;100.00
11523;BME280;40093;43.224;27.910;2022-11-15T12:40:38;100859.69;;;14.50;100.00
11523;BME280;40093;43.224;27.910;2022-11-15T12:46:04;100863.25;;;14.58;100.00
11523;BME280;40093;43.224;27.910;2022-11-15T12:49:00;100858.13;;;14.67;100.00
11523;BME280;40093;43.224;27.910;2022-11-15T12:54:59;100861.25;;;14.62;100.00
11523;BME280;40093;43.224;27.910;2022-11-15T13:00:43;100853.34;;;14.67;100.00
11523;BME280;40093;43.224;27.910;2022-11-15T13:03:27;100851.78;;;14.73;100.00